Anvik, Alaska
Current Conditions -  °F | °C
As of 8:36 AM on Saturday 22 Nov 2014 (Local Time) from PANV Reporting Station
Clear Clear  
Wind Chill: -7°   Ceiling: Unl
Heat Index: 10°   Visibility: 10mi
Dew Point: -4°   Wind: 16mph
Humidity: 52%   Direction: 40°NE
Pressure: 29.17"   Gusts: 21mph
Location:  62.66°N, 160.21°W
Report Text: PANV 221736Z AUTO 04014G18KT 10SM CLR M12/M20 A2917 RMK AO1
Loading
Personal Weather Stations






























Interactive Weather Map New forecast layout! Learn more

10-Day Weather Forecast

Advertisements
Track Severe Weather on mobile